Time;durP1;ratioP1;P1;durP2;ratioP2;P2;SDS_P1;SDS_P2;PMS_P1;PMS_P2;Temp;Humidity;BMP_temperature;BMP_pressure;BME280_temperature;BME280_humidity;BME280_pressure;Samples;Min_cycle;Max_cycle;Signal;HPM_P1;HPM_P2
2023/10/24 00:02:27;;;;;;;15.48;8.98;;;10.00;99.90;;;;;;5094129;28;20512;-74
2023/10/24 00:05:14;;;;;;;18.95;8.88;;;10.00;99.90;;;;;;5073792;28;20056;-84
2023/10/24 00:08:00;;;;;;;17.00;9.38;;;10.00;99.90;;;;;;5075409;28;20055;-79
2023/10/24 00:10:47;;;;;;;20.45;9.02;;;10.00;99.90;;;;;;5061466;28;20043;-83
2023/10/24 00:13:33;;;;;;;16.33;8.70;;;10.00;99.90;;;;;;5075278;28;20117;-85
2023/10/24 00:16:19;;;;;;;16.67;8.38;;;10.00;99.90;;;;;;5061179;28;20109;-84
2023/10/24 00:19:05;;;;;;;18.15;9.30;;;10.00;99.90;;;;;;5073560;28;20504;-87
2023/10/24 00:21:51;;;;;;;18.05;9.73;;;10.00;99.90;;;;;;5093536;28;20070;-86
2023/10/24 00:24:37;;;;;;;20.90;9.73;;;9.90;99.90;;;;;;5077303;28;20104;-86
2023/10/24 00:27:23;;;;;;;19.33;9.85;;;9.90;99.90;;;;;;5094733;28;20052;-86
2023/10/24 00:30:10;;;;;;;20.05;9.70;;;9.90;99.90;;;;;;5092930;28;20091;-79
2023/10/24 00:32:56;;;;;;;17.52;10.98;;;9.90;99.90;;;;;;5092286;28;20063;-88
2023/10/24 00:35:43;;;;;;;17.80;9.98;;;9.90;99.90;;;;;;5093792;28;20138;-76
2023/10/24 00:38:29;;;;;;;21.25;8.95;;;9.90;99.90;;;;;;5063057;28;20062;-80
2023/10/24 00:41:15;;;;;;;21.13;9.52;;;9.90;99.90;;;;;;5075386;28;20051;-74
2023/10/24 00:44:01;;;;;;;22.83;10.23;;;9.90;99.90;;;;;;5091653;28;20055;-78
2023/10/24 00:46:48;;;;;;;21.30;9.95;;;9.90;99.90;;;;;;5074923;28;20050;-80
2023/10/24 00:49:34;;;;;;;19.45;8.98;;;9.90;99.90;;;;;;5093143;28;20058;-80
2023/10/24 00:52:20;;;;;;;22.88;10.75;;;9.90;99.90;;;;;;5075427;28;20052;-78
2023/10/24 00:55:08;;;;;;;23.38;10.63;;;10.00;99.90;;;;;;5092388;28;20135;-78
2023/10/24 00:57:55;;;;;;;22.13;10.48;;;9.90;99.90;;;;;;5093660;28;20079;-77
2023/10/24 01:00:43;;;;;;;20.77;10.73;;;10.00;99.90;;;;;;5080891;28;20056;-76
2023/10/24 01:03:29;;;;;;;19.83;9.65;;;9.90;99.90;;;;;;5090415;28;20054;-81
2023/10/24 01:06:18;;;;;;;22.75;11.75;;;10.00;99.90;;;;;;5093416;28;20059;-79
2023/10/24 01:09:05;;;;;;;19.40;11.57;;;10.00;99.90;;;;;;5087500;28;20484;-75
2023/10/24 01:11:53;;;;;;;20.63;10.55;;;10.00;99.90;;;;;;5084126;28;20104;-78
2023/10/24 01:14:40;;;;;;;14.65;8.68;;;10.00;99.90;;;;;;5097991;28;20047;-72
2023/10/24 01:17:26;;;;;;;18.23;10.65;;;10.00;99.90;;;;;;5074060;28;20051;-73
2023/10/24 01:20:12;;;;;;;17.50;9.40;;;10.00;99.90;;;;;;5073426;28;20407;-71
2023/10/24 01:22:58;;;;;;;19.52;9.73;;;10.00;99.90;;;;;;5072283;28;20090;-78
2023/10/24 01:25:45;;;;;;;15.45;10.32;;;10.10;99.90;;;;;;5075878;28;20052;-74
2023/10/24 01:28:31;;;;;;;21.20;11.13;;;10.10;99.90;;;;;;5091186;28;20090;-82
2023/10/24 01:31:17;;;;;;;20.92;11.55;;;10.10;99.90;;;;;;5072163;28;20110;-74
2023/10/24 01:34:03;;;;;;;18.15;10.98;;;10.10;99.90;;;;;;5091217;28;20066;-81
2023/10/24 01:36:50;;;;;;;20.70;11.30;;;10.10;99.90;;;;;;5072160;28;20062;-79
2023/10/24 01:39:36;;;;;;;20.90;11.10;;;10.00;99.90;;;;;;5090963;28;20059;-75
2023/10/24 01:42:22;;;;;;;21.08;11.27;;;10.00;99.90;;;;;;5073477;28;20048;-83
2023/10/24 01:45:08;;;;;;;23.13;12.25;;;10.00;99.90;;;;;;5074188;28;20063;-74
2023/10/24 01:47:54;;;;;;;22.25;11.48;;;10.00;99.90;;;;;;5072629;28;20051;-76
2023/10/24 01:50:40;;;;;;;29.73;11.93;;;10.00;99.90;;;;;;5059320;28;20055;-72
2023/10/24 01:53:26;;;;;;;23.38;11.85;;;10.00;99.90;;;;;;5073143;28;20040;-79
2023/10/24 01:56:13;;;;;;;21.55;11.55;;;10.00;99.90;;;;;;5075895;28;20048;-82
2023/10/24 01:58:59;;;;;;;24.08;11.43;;;10.00;99.90;;;;;;5073557;28;20750;-74
2023/10/24 02:01:45;;;;;;;23.38;11.77;;;10.00;99.90;;;;;;5072803;28;20052;-78
2023/10/24 02:04:31;;;;;;;17.42;10.20;;;10.00;99.90;;;;;;5090863;28;20052;-73
2023/10/24 02:07:19;;;;;;;22.38;11.65;;;10.00;99.90;;;;;;5091139;28;20139;-79
2023/10/24 02:10:06;;;;;;;23.52;11.68;;;10.00;99.90;;;;;;5072875;28;20091;-73
2023/10/24 02:12:52;;;;;;;24.52;12.30;;;10.00;99.90;;;;;;5058795;28;20446;-74
2023/10/24 02:15:38;;;;;;;20.73;11.98;;;10.00;99.90;;;;;;5072539;28;20048;-76
2023/10/24 02:18:24;;;;;;;20.15;11.02;;;10.00;99.90;;;;;;5072785;28;20135;-72
2023/10/24 02:21:10;;;;;;;26.50;12.25;;;10.00;99.90;;;;;;5053298;28;20044;-85
2023/10/24 02:23:56;;;;;;;25.10;12.23;;;10.00;99.90;;;;;;5042821;28;20067;-75
2023/10/24 02:26:44;;;;;;;31.23;12.88;;;10.00;99.90;;;;;;5078377;28;20052;-72
2023/10/24 02:29:33;;;;;;;25.45;13.15;;;10.00;99.90;;;;;;5054167;28;20053;-83
2023/10/24 02:32:19;;;;;;;22.00;12.10;;;10.00;99.90;;;;;;5052193;28;20051;-73
2023/10/24 02:35:05;;;;;;;22.40;11.93;;;10.00;99.90;;;;;;5072275;28;20051;-77
2023/10/24 02:37:52;;;;;;;25.60;13.05;;;10.00;99.90;;;;;;5053847;28;20056;-72
2023/10/24 02:40:37;;;;;;;24.85;13.30;;;10.00;99.90;;;;;;5040928;28;20048;-78
2023/10/24 02:43:23;;;;;;;25.20;13.82;;;10.00;99.90;;;;;;5071933;28;20086;-85
2023/10/24 02:46:09;;;;;;;28.73;15.90;;;10.00;99.90;;;;;;5051932;28;20048;-74
2023/10/24 02:48:55;;;;;;;28.08;14.88;;;10.00;99.90;;;;;;5053317;28;20548;-81
2023/10/24 02:51:41;;;;;;;29.27;15.45;;;10.00;99.90;;;;;;5053250;28;20053;-78
2023/10/24 02:54:27;;;;;;;28.30;15.65;;;10.00;99.90;;;;;;5053586;28;20052;-76
2023/10/24 02:57:14;;;;;;;34.28;16.48;;;10.00;99.90;;;;;;5071852;28;20040;-83
2023/10/24 03:00:00;;;;;;;27.65;15.48;;;10.00;99.90;;;;;;5052753;28;20052;-77
2023/10/24 03:02:46;;;;;;;30.17;14.60;;;10.00;99.90;;;;;;5054253;28;20056;-76
2023/10/24 03:05:32;;;;;;;25.55;14.18;;;10.00;99.90;;;;;;5044938;28;20056;-71
2023/10/24 03:08:18;;;;;;;28.60;14.85;;;10.00;99.90;;;;;;5055552;28;20151;-78
2023/10/24 03:11:04;;;;;;;26.25;14.30;;;10.10;99.90;;;;;;5074353;28;20056;-76
2023/10/24 03:13:56;;;;;;;29.88;16.27;;;10.10;99.90;;;;;;5055971;28;20063;-78
2023/10/24 03:16:42;;;;;;;25.35;15.35;;;10.10;99.90;;;;;;5043089;28;20056;-76
2023/10/24 03:19:28;;;;;;;29.73;15.40;;;10.10;99.90;;;;;;5065444;28;20491;-80
2023/10/24 03:22:17;;;;;;;32.95;16.40;;;10.10;99.90;;;;;;5095288;28;20094;-76
2023/10/24 03:25:04;;;;;;;21.60;12.82;;;10.10;99.90;;;;;;5076038;28;20048;-79
2023/10/24 03:27:55;;;;;;;27.42;15.65;;;10.10;99.90;;;;;;5062525;28;20051;-80
2023/10/24 03:30:41;;;;;;;28.58;16.67;;;10.10;99.90;;;;;;5081947;28;20412;-72
2023/10/24 03:33:27;;;;;;;27.00;14.93;;;10.20;99.90;;;;;;5082643;28;20139;-74
2023/10/24 03:36:13;;;;;;;22.58;14.00;;;10.20;99.90;;;;;;5069464;28;20047;-74
2023/10/24 03:38:59;;;;;;;28.63;14.88;;;10.20;99.90;;;;;;5069877;28;20048;-86
2023/10/24 03:41:45;;;;;;;21.77;12.75;;;10.20;99.90;;;;;;5075887;28;20109;-76
2023/10/24 03:44:31;;;;;;;24.75;13.73;;;10.20;99.90;;;;;;5076111;28;20119;-79
2023/10/24 03:47:17;;;;;;;29.27;15.70;;;10.30;99.90;;;;;;5078747;28;20055;-78
2023/10/24 03:50:04;;;;;;;26.58;14.60;;;10.30;99.90;;;;;;5076277;28;20519;-84
2023/10/24 03:52:50;;;;;;;24.90;14.15;;;10.20;99.90;;;;;;5075569;28;20048;-79
2023/10/24 03:55:36;;;;;;;26.92;15.50;;;10.30;99.90;;;;;;5092721;28;20449;-75
2023/10/24 03:58:22;;;;;;;25.70;14.23;;;10.30;99.90;;;;;;5078651;28;20082;-82
2023/10/24 04:01:08;;;;;;;22.80;13.93;;;10.30;99.90;;;;;;5075606;28;20052;-78
2023/10/24 04:03:54;;;;;;;25.55;13.93;;;10.30;99.90;;;;;;5093815;28;20048;-77
2023/10/24 04:06:40;;;;;;;23.42;13.80;;;10.30;99.90;;;;;;5093082;28;20052;-78
2023/10/24 04:09:26;;;;;;;19.92;11.68;;;10.30;99.90;;;;;;5092843;28;20407;-76
2023/10/24 04:12:12;;;;;;;26.02;14.85;;;10.30;99.90;;;;;;5075146;28;20052;-78
2023/10/24 04:14:58;;;;;;;28.60;14.50;;;10.40;99.90;;;;;;5074892;28;20502;-80
2023/10/24 04:17:44;;;;;;;22.92;12.77;;;10.40;99.90;;;;;;5094005;28;20048;-79
2023/10/24 04:20:33;;;;;;;19.67;11.02;;;10.40;99.90;;;;;;5074456;28;20161;-86
2023/10/24 04:23:19;;;;;;;25.05;12.60;;;10.40;99.90;;;;;;5063296;28;20059;-81
2023/10/24 04:26:05;;;;;;;18.95;11.85;;;10.40;99.90;;;;;;5062317;28;20044;-78
2023/10/24 04:28:52;;;;;;;21.10;12.13;;;10.40;99.90;;;;;;5073700;28;20048;-79
2023/10/24 04:31:38;;;;;;;21.17;12.23;;;10.50;99.90;;;;;;5061156;28;20056;-78
2023/10/24 04:34:24;;;;;;;20.17;11.98;;;10.50;99.90;;;;;;5073067;28;20056;-83
2023/10/24 04:37:10;;;;;;;21.42;13.05;;;10.40;99.90;;;;;;5093249;28;20407;-76
2023/10/24 04:39:56;;;;;;;20.90;13.38;;;10.50;99.90;;;;;;5075342;28;20146;-76
2023/10/24 04:42:42;;;;;;;22.27;13.50;;;10.50;99.90;;;;;;5074362;28;20134;-76
2023/10/24 04:45:29;;;;;;;22.15;12.32;;;10.50;99.90;;;;;;5073342;28;20044;-77
2023/10/24 04:48:16;;;;;;;22.17;13.50;;;10.50;99.90;;;;;;5073524;28;20064;-76
2023/10/24 04:51:11;;;;;;;25.88;15.10;;;10.50;99.90;;;;;;5077642;28;20055;-75
2023/10/24 04:53:56;;;;;;;23.92;13.68;;;10.60;99.90;;;;;;5072296;28;20058;-75
2023/10/24 04:56:42;;;;;;;26.80;14.05;;;10.60;99.90;;;;;;5084281;28;20048;-85
2023/10/24 04:59:29;;;;;;;29.10;15.50;;;10.60;99.90;;;;;;5073602;28;20511;-80
2023/10/24 05:02:15;;;;;;;28.92;14.63;;;10.60;99.90;;;;;;5060855;28;20484;-84
2023/10/24 05:05:01;;;;;;;26.73;14.73;;;10.50;99.90;;;;;;5060360;28;20056;-80
2023/10/24 05:07:47;;;;;;;32.22;15.75;;;10.60;99.90;;;;;;5078917;28;20052;-77
2023/10/24 05:10:33;;;;;;;34.33;17.13;;;10.60;99.90;;;;;;5072848;28;20062;-72
2023/10/24 05:13:19;;;;;;;24.55;13.75;;;10.60;99.90;;;;;;5073089;28;20056;-82
2023/10/24 05:16:05;;;;;;;30.13;15.88;;;10.70;99.90;;;;;;5073364;28;20044;-77
2023/10/24 05:18:51;;;;;;;32.92;16.23;;;10.70;99.90;;;;;;5073798;28;20130;-74
2023/10/24 05:21:37;;;;;;;30.25;16.20;;;10.70;99.90;;;;;;5073929;28;20054;-76
2023/10/24 05:24:23;;;;;;;34.65;17.90;;;10.70;99.90;;;;;;5074236;28;20056;-75
2023/10/24 05:27:09;;;;;;;30.42;16.83;;;10.70;99.90;;;;;;5074341;28;20052;-82
2023/10/24 05:29:55;;;;;;;31.63;17.40;;;10.70;99.90;;;;;;5091609;28;20087;-82
2023/10/24 05:32:41;;;;;;;28.30;15.50;;;10.70;99.90;;;;;;5072675;28;20044;-83
2023/10/24 05:35:27;;;;;;;26.38;14.98;;;10.70;99.90;;;;;;5076769;28;20118;-79
2023/10/24 05:38:13;;;;;;;31.17;17.02;;;10.70;99.90;;;;;;5073891;28;20056;-82
2023/10/24 05:41:00;;;;;;;34.40;17.77;;;10.70;99.90;;;;;;5073634;28;20052;-83
2023/10/24 05:43:46;;;;;;;25.17;16.08;;;10.70;99.90;;;;;;5073702;28;20062;-79
2023/10/24 05:46:31;;;;;;;30.33;17.48;;;10.70;99.90;;;;;;5073500;28;20048;-83
2023/10/24 05:49:18;;;;;;;27.02;16.25;;;10.80;99.90;;;;;;5075533;28;20044;-75
2023/10/24 05:52:04;;;;;;;34.90;16.80;;;10.80;99.90;;;;;;5073225;28;20052;-83
2023/10/24 05:54:50;;;;;;;29.58;16.70;;;10.80;99.90;;;;;;5090953;28;20051;-84
2023/10/24 05:57:36;;;;;;;28.33;16.58;;;10.80;99.90;;;;;;5091132;28;20051;-75
2023/10/24 06:00:23;;;;;;;32.95;17.25;;;10.80;99.90;;;;;;5075663;28;20057;-83
2023/10/24 06:03:09;;;;;;;34.70;18.88;;;10.80;99.90;;;;;;5073782;28;20647;-76
2023/10/24 06:05:55;;;;;;;25.38;15.45;;;10.90;99.90;;;;;;5073731;28;20487;-82
2023/10/24 06:08:41;;;;;;;32.38;17.17;;;10.90;99.90;;;;;;5085752;28;20079;-73
2023/10/24 06:11:27;;;;;;;30.13;17.77;;;10.90;99.90;;;;;;5085403;28;20070;-85
2023/10/24 06:14:13;;;;;;;29.80;17.67;;;10.90;99.90;;;;;;5074117;28;20084;-74
2023/10/24 06:17:00;;;;;;;36.33;19.10;;;10.90;99.90;;;;;;5073207;28;20126;-78
2023/10/24 06:19:48;;;;;;;29.70;17.33;;;10.90;99.90;;;;;;5058304;28;20055;-81
2023/10/24 06:22:34;;;;;;;30.13;17.77;;;10.90;99.90;;;;;;5071811;28;20853;-72
2023/10/24 06:25:21;;;;;;;29.40;18.08;;;10.90;99.90;;;;;;5071791;28;20048;-84
2023/10/24 06:28:08;;;;;;;30.15;17.48;;;10.90;99.90;;;;;;5091369;28;20044;-84
2023/10/24 06:30:58;;;;;;;31.95;18.30;;;11.00;99.90;;;;;;5073880;28;20048;-78
2023/10/24 06:33:44;;;;;;;29.77;18.58;;;11.00;99.90;;;;;;5074757;28;20044;-82
2023/10/24 06:36:32;;;;;;;30.60;18.30;;;11.00;99.90;;;;;;5071462;28;20070;-79
2023/10/24 06:39:18;;;;;;;30.95;19.50;;;11.00;99.90;;;;;;5071921;28;20044;-77
2023/10/24 06:42:05;;;;;;;31.92;19.85;;;11.00;99.90;;;;;;5072663;28;20051;-80
2023/10/24 06:44:51;;;;;;;29.92;20.25;;;11.00;99.90;;;;;;5075851;28;20066;-77
2023/10/24 06:47:38;;;;;;;34.67;20.27;;;11.00;99.90;;;;;;5076234;28;20123;-83
2023/10/24 06:50:24;;;;;;;33.15;21.40;;;11.00;99.90;;;;;;5076418;28;20408;-85
2023/10/24 06:53:11;;;;;;;35.00;21.23;;;11.10;99.90;;;;;;5094813;28;20044;-79
2023/10/24 06:56:00;;;;;;;31.63;19.33;;;11.10;99.90;;;;;;5061754;28;20079;-81
2023/10/24 06:58:46;;;;;;;29.65;19.13;;;11.10;99.90;;;;;;5094124;28;20117;-78
2023/10/24 07:01:32;;;;;;;34.80;21.02;;;11.10;99.90;;;;;;5076251;28;20109;-76
2023/10/24 07:04:18;;;;;;;31.88;20.55;;;11.20;99.90;;;;;;5076322;28;20048;-79
2023/10/24 07:07:04;;;;;;;31.40;21.25;;;11.20;99.90;;;;;;5076059;28;20052;-83
2023/10/24 07:09:50;;;;;;;38.50;21.42;;;11.20;99.90;;;;;;5075094;28;20056;-76
2023/10/24 07:12:36;;;;;;;37.50;21.60;;;11.20;99.90;;;;;;5063682;28;20499;-80
2023/10/24 07:15:22;;;;;;;34.60;20.60;;;11.20;99.90;;;;;;5094674;28;20052;-82
2023/10/24 07:18:08;;;;;;;31.77;19.27;;;11.20;99.90;;;;;;5080175;28;20122;-84
2023/10/24 07:20:57;;;;;;;34.60;20.13;;;11.20;99.90;;;;;;5077977;28;20056;-80
2023/10/24 07:23:43;;;;;;;29.02;18.05;;;11.20;99.90;;;;;;5076087;28;20093;-82
2023/10/24 07:26:30;;;;;;;26.65;17.33;;;11.20;99.90;;;;;;5075710;28;20062;-83
2023/10/24 07:29:16;;;;;;;29.65;17.65;;;11.20;99.90;;;;;;5093320;28;20048;-85
2023/10/24 07:32:02;;;;;;;24.33;15.75;;;11.20;99.90;;;;;;5078411;28;20054;-82
2023/10/24 07:34:51;;;;;;;23.15;14.75;;;11.20;99.90;;;;;;5075651;28;20056;-77
2023/10/24 07:37:37;;;;;;;25.77;15.25;;;11.30;99.90;;;;;;5086438;28;20048;-74
2023/10/24 07:40:23;;;;;;;21.88;15.38;;;11.20;99.90;;;;;;5086604;28;20051;-76
2023/10/24 07:43:09;;;;;;;19.70;11.07;;;11.20;99.90;;;;;;5077989;28;20078;-84
2023/10/24 07:45:55;;;;;;;21.58;13.05;;;11.20;99.90;;;;;;5092747;28;20109;-89
2023/10/24 07:48:41;;;;;;;23.15;12.60;;;11.20;99.90;;;;;;5075820;28;20056;-80
2023/10/24 07:51:31;;;;;;;20.95;11.57;;;11.20;99.90;;;;;;5075967;28;20109;-88
2023/10/24 07:54:17;;;;;;;16.17;10.48;;;11.20;99.90;;;;;;5075233;28;20143;-79
2023/10/24 07:57:03;;;;;;;15.95;10.30;;;11.20;99.90;;;;;;5075619;28;20059;-89
2023/10/24 07:59:49;;;;;;;16.33;10.32;;;11.20;99.90;;;;;;5093522;28;20055;-85
2023/10/24 08:02:35;;;;;;;15.80;9.35;;;11.20;99.90;;;;;;5062560;28;20044;-79
2023/10/24 08:05:21;;;;;;;16.02;9.30;;;11.20;99.90;;;;;;5075393;28;20126;-83
2023/10/24 08:08:07;;;;;;;18.48;8.85;;;11.20;99.90;;;;;;5077495;28;20474;-90
2023/10/24 08:10:54;;;;;;;15.15;9.55;;;11.30;99.90;;;;;;5078792;28;20504;-81
2023/10/24 08:13:40;;;;;;;16.27;9.27;;;11.20;99.90;;;;;;5093260;28;20051;-91
2023/10/24 08:16:26;;;;;;;17.08;9.65;;;11.20;99.90;;;;;;5060979;28;20135;-89
2023/10/24 08:19:12;;;;;;;16.52;10.25;;;11.30;99.90;;;;;;5093029;28;20538;-89
2023/10/24 08:22:01;;;;;;;17.88;10.85;;;11.30;99.90;;;;;;5075383;28;20569;-81
2023/10/24 08:24:47;;;;;;;17.85;10.60;;;11.30;99.90;;;;;;5074618;28;20040;-88
2023/10/24 08:27:33;;;;;;;22.33;11.48;;;11.20;99.90;;;;;;5074412;28;20044;-90
2023/10/24 08:30:19;;;;;;;19.00;10.85;;;11.20;99.90;;;;;;5074826;28;20209;-88
2023/10/24 08:33:06;;;;;;;24.75;12.10;;;11.20;99.90;;;;;;5060790;28;20079;-90
2023/10/24 08:35:52;;;;;;;23.05;12.55;;;11.20;99.90;;;;;;5075305;28;20121;-88
2023/10/24 08:38:38;;;;;;;23.55;12.43;;;11.30;99.90;;;;;;5074590;28;20043;-81
2023/10/24 08:41:24;;;;;;;25.98;12.65;;;11.30;99.90;;;;;;5075048;28;20109;-80
2023/10/24 08:44:12;;;;;;;22.48;13.32;;;11.30;99.90;;;;;;5074412;28;20044;-88
2023/10/24 08:46:58;;;;;;;28.50;14.32;;;11.30;99.90;;;;;;5093911;28;20063;-82
2023/10/24 08:49:44;;;;;;;24.50;12.55;;;11.40;99.90;;;;;;5073016;28;20063;-83
2023/10/24 08:52:30;;;;;;;28.13;13.68;;;11.40;99.90;;;;;;5073987;28;20080;-82
2023/10/24 08:55:18;;;;;;;26.88;14.02;;;11.30;99.90;;;;;;5074350;28;20492;-78
2023/10/24 08:58:06;;;;;;;27.85;13.90;;;11.40;99.90;;;;;;5076129;28;20062;-79
2023/10/24 09:00:52;;;;;;;31.85;14.40;;;11.40;99.90;;;;;;5093178;28;20048;-83
2023/10/24 09:03:39;;;;;;;26.95;13.50;;;11.30;99.90;;;;;;5093844;28;20040;-79
2023/10/24 09:06:25;;;;;;;24.60;12.88;;;11.30;99.90;;;;;;5074032;28;20080;-82
2023/10/24 09:09:12;;;;;;;30.55;14.60;;;11.30;99.90;;;;;;5078189;28;20051;-75
2023/10/24 09:12:00;;;;;;;27.85;14.10;;;11.30;99.90;;;;;;5101556;28;20052;-75
2023/10/24 09:14:48;;;;;;;29.52;14.57;;;11.30;99.90;;;;;;5100873;28;20545;-73
2023/10/24 09:17:35;;;;;;;24.08;14.10;;;11.30;99.90;;;;;;5087272;28;20408;-77
2023/10/24 09:20:21;;;;;;;25.40;13.70;;;11.40;99.90;;;;;;5073538;28;20427;-87
2023/10/24 09:23:11;;;;;;;29.83;15.23;;;11.40;99.90;;;;;;5072851;28;20132;-86
2023/10/24 09:26:01;;;;;;;25.65;14.82;;;11.40;99.90;;;;;;5073678;28;20047;-79
2023/10/24 09:28:56;;;;;;;25.65;14.10;;;11.40;99.90;;;;;;5073716;28;20052;-81
2023/10/24 09:31:44;;;;;;;26.02;13.27;;;11.40;99.90;;;;;;5092382;28;20429;-75
2023/10/24 09:34:31;;;;;;;26.10;14.13;;;11.40;99.90;;;;;;5074230;28;20472;-84
2023/10/24 09:37:18;;;;;;;25.75;12.80;;;11.40;99.90;;;;;;5077246;28;20114;-87
2023/10/24 09:40:04;;;;;;;28.83;14.13;;;11.40;99.90;;;;;;5086459;28;20055;-76
2023/10/24 09:42:52;;;;;;;26.52;13.82;;;11.40;99.90;;;;;;5082756;28;20056;-84
2023/10/24 09:45:44;;;;;;;27.52;13.57;;;11.50;99.90;;;;;;5091954;28;20040;-83
2023/10/24 09:48:30;;;;;;;21.25;12.55;;;11.50;99.90;;;;;;5059651;28;20138;-81
2023/10/24 09:51:19;;;;;;;25.60;14.20;;;11.50;99.90;;;;;;5072860;28;20086;-83
2023/10/24 09:54:07;;;;;;;22.60;13.25;;;11.60;99.90;;;;;;5059479;28;20052;-87
2023/10/24 09:56:55;;;;;;;26.42;14.25;;;11.50;99.90;;;;;;5075112;28;20507;-78
2023/10/24 09:59:42;;;;;;;27.75;15.20;;;11.50;99.90;;;;;;5075735;28;20044;-75
2023/10/24 10:02:28;;;;;;;24.65;14.05;;;11.50;99.90;;;;;;5090477;28;20055;-79
2023/10/24 10:05:14;;;;;;;24.58;14.60;;;11.50;99.90;;;;;;5072900;28;20060;-81
2023/10/24 10:08:02;;;;;;;30.45;16.80;;;11.50;99.90;;;;;;5072739;28;20055;-78
2023/10/24 10:10:51;;;;;;;27.85;15.45;;;11.50;99.90;;;;;;5091685;28;20055;-87
2023/10/24 10:13:53;;;;;;;30.10;16.27;;;11.50;99.90;;;;;;5091183;28;20051;-81
2023/10/24 10:17:26;;;;;;;24.80;15.80;;;11.50;99.90;;;;;;5090409;28;20506;-78
2023/10/24 10:20:49;;;;;;;28.10;15.75;;;11.40;99.90;;;;;;4966329;28;20479;-80
2023/10/24 10:23:57;;;;;;;25.27;15.55;;;11.40;99.90;;;;;;5039419;28;20405;-82
2023/10/24 10:27:18;;;;;;;27.15;15.65;;;11.40;99.90;;;;;;5053233;28;20586;-83
2023/10/24 10:30:10;;;;;;;27.20;15.45;;;11.40;99.90;;;;;;5058046;28;20063;-84
2023/10/24 10:33:28;;;;;;;33.08;17.50;;;11.30;99.90;;;;;;5048631;28;20512;-85
2023/10/24 10:36:14;;;;;;;25.25;14.52;;;11.40;99.90;;;;;;5044946;28;20076;-81
2023/10/24 10:39:09;;;;;;;29.80;16.98;;;11.40;99.90;;;;;;5059293;28;20115;-80
2023/10/24 10:41:55;;;;;;;26.88;16.65;;;11.30;99.90;;;;;;5046783;28;20071;-84
2023/10/24 10:44:43;;;;;;;28.67;17.48;;;11.30;99.90;;;;;;5043342;28;20143;-83
2023/10/24 10:47:29;;;;;;;27.05;16.30;;;11.40;99.90;;;;;;5053802;28;20520;-86
2023/10/24 10:50:26;;;;;;;27.65;15.82;;;11.30;99.90;;;;;;5043097;28;20106;-81
2023/10/24 10:53:40;;;;;;;31.65;16.90;;;11.30;99.90;;;;;;5056676;28;20099;-81
2023/10/24 10:56:31;;;;;;;27.10;16.83;;;11.30;99.90;;;;;;5054139;28;20095;-80
2023/10/24 10:59:26;;;;;;;33.72;17.35;;;11.30;99.90;;;;;;5070174;28;20056;-83
2023/10/24 11:02:30;;;;;;;27.40;16.00;;;11.30;99.90;;;;;;5070080;28;20634;-82
2023/10/24 11:05:37;;;;;;;25.48;15.35;;;11.30;99.90;;;;;;5051990;28;20481;-78
2023/10/24 11:08:24;;;;;;;31.48;15.80;;;11.40;99.90;;;;;;5064453;28;20103;-77
2023/10/24 11:11:10;;;;;;;28.38;15.45;;;11.30;99.90;;;;;;5043582;28;20056;-77
2023/10/24 11:14:21;;;;;;;25.55;15.32;;;11.30;99.90;;;;;;5054961;28;20135;-75
2023/10/24 11:17:08;;;;;;;26.02;15.60;;;11.40;99.90;;;;;;5058415;28;20048;-74
2023/10/24 11:19:55;;;;;;;28.73;15.80;;;11.40;99.90;;;;;;5068792;28;20056;-74
2023/10/24 11:22:41;;;;;;;27.88;15.85;;;11.40;99.90;;;;;;5059334;28;20492;-75
2023/10/24 11:25:27;;;;;;;27.38;15.80;;;11.50;99.90;;;;;;5089696;28;20388;-77
2023/10/24 11:28:14;;;;;;;30.23;15.73;;;11.50;99.90;;;;;;5092158;28;20147;-75
2023/10/24 11:31:25;;;;;;;26.40;14.48;;;11.60;99.90;;;;;;5063685;28;20059;-74
2023/10/24 11:34:13;;;;;;;29.05;15.43;;;11.60;99.90;;;;;;5075205;28;20059;-74
2023/10/24 11:36:59;;;;;;;25.42;14.55;;;11.60;99.90;;;;;;5074903;28;20060;-83
2023/10/24 11:39:45;;;;;;;27.50;16.48;;;11.70;99.90;;;;;;5061815;28;20051;-75
2023/10/24 11:42:31;;;;;;;32.40;16.38;;;11.70;99.90;;;;;;5074572;28;20116;-74
2023/10/24 11:45:17;;;;;;;29.25;16.83;;;11.80;99.90;;;;;;5074732;28;20047;-82
2023/10/24 11:48:04;;;;;;;25.58;15.82;;;11.80;99.90;;;;;;5074772;28;20054;-77
2023/10/24 11:50:50;;;;;;;27.88;16.08;;;11.80;99.90;;;;;;5092053;28;20078;-82
2023/10/24 11:53:36;;;;;;;28.55;16.05;;;11.80;99.90;;;;;;5074770;28;20048;-79
2023/10/24 11:56:22;;;;;;;30.08;16.10;;;11.80;99.90;;;;;;5075281;28;20520;-81
2023/10/24 11:59:12;;;;;;;27.20;16.20;;;11.90;99.90;;;;;;5060621;28;20047;-75
2023/10/24 12:01:58;;;;;;;27.40;16.02;;;11.90;99.90;;;;;;5060602;28;20124;-76
2023/10/24 12:04:51;;;;;;;24.73;15.75;;;11.90;99.90;;;;;;5074341;28;20152;-75
2023/10/24 12:07:37;;;;;;;27.20;17.15;;;11.80;99.90;;;;;;5062053;28;20108;-79
2023/10/24 12:10:23;;;;;;;27.58;15.77;;;11.90;99.90;;;;;;5075350;28;20087;-79
2023/10/24 12:13:09;;;;;;;26.70;16.00;;;11.80;99.90;;;;;;5074415;28;20059;-81
2023/10/24 12:15:56;;;;;;;27.08;16.08;;;11.80;99.90;;;;;;5076755;28;20044;-77
2023/10/24 12:18:43;;;;;;;24.17;15.15;;;11.80;99.90;;;;;;5096079;28;20131;-79
2023/10/24 12:21:34;;;;;;;25.35;15.80;;;11.80;99.90;;;;;;5078054;28;20052;-80
2023/10/24 12:24:21;;;;;;;23.80;15.57;;;11.90;99.90;;;;;;5074806;28;20396;-83
2023/10/24 12:27:07;;;;;;;25.70;15.70;;;11.90;99.90;;;;;;5093265;28;20056;-75
2023/10/24 12:29:53;;;;;;;23.30;15.77;;;11.90;99.90;;;;;;5074653;28;20048;-74
2023/10/24 12:32:41;;;;;;;28.02;16.70;;;11.90;99.90;;;;;;5074351;28;20060;-76
2023/10/24 12:35:27;;;;;;;29.15;16.98;;;11.90;99.90;;;;;;5076642;28;20056;-75
2023/10/24 12:38:14;;;;;;;23.67;15.85;;;11.90;99.90;;;;;;5073465;28;20048;-79
2023/10/24 12:41:00;;;;;;;24.65;15.80;;;11.90;99.90;;;;;;5074098;28;20477;-74
2023/10/24 12:43:46;;;;;;;25.98;16.08;;;11.90;99.90;;;;;;5073619;28;20139;-77
2023/10/24 12:46:32;;;;;;;22.02;14.98;;;11.90;99.90;;;;;;5075079;28;20051;-78
2023/10/24 12:49:19;;;;;;;23.73;15.75;;;11.90;99.90;;;;;;5077319;28;20109;-74
2023/10/24 12:52:05;;;;;;;23.70;15.52;;;11.90;99.90;;;;;;5063278;28;20091;-73
2023/10/24 12:54:51;;;;;;;29.75;16.45;;;12.00;99.90;;;;;;5075280;28;20058;-79
2023/10/24 12:57:38;;;;;;;23.83;16.05;;;12.00;99.90;;;;;;5075260;28;20137;-84
2023/10/24 13:00:25;;;;;;;22.38;15.50;;;12.00;99.90;;;;;;5074401;28;20098;-74
2023/10/24 13:03:11;;;;;;;20.70;14.70;;;12.00;99.90;;;;;;5073894;28;20056;-75
2023/10/24 13:05:57;;;;;;;24.15;14.40;;;12.00;99.90;;;;;;5091531;28;20055;-79
2023/10/24 13:08:43;;;;;;;18.65;13.77;;;11.90;99.90;;;;;;5058707;28;20835;-76
2023/10/24 13:11:30;;;;;;;22.95;13.60;;;12.00;99.90;;;;;;5091675;28;20056;-79
2023/10/24 13:14:16;;;;;;;22.90;13.73;;;11.90;99.90;;;;;;5073529;28;20044;-74
2023/10/24 13:17:02;;;;;;;21.15;13.65;;;11.90;99.90;;;;;;5058706;28;20062;-75
2023/10/24 13:19:48;;;;;;;22.42;13.98;;;11.90;99.90;;;;;;5076566;28;20105;-77
2023/10/24 13:22:34;;;;;;;20.25;12.82;;;11.80;99.90;;;;;;5072733;28;20480;-74
2023/10/24 13:25:21;;;;;;;19.63;14.02;;;11.80;99.90;;;;;;5058306;28;20056;-76
2023/10/24 13:28:06;;;;;;;24.98;13.57;;;11.80;99.90;;;;;;5073811;28;20063;-75
2023/10/24 13:30:52;;;;;;;19.45;12.68;;;11.80;99.90;;;;;;5057866;28;20158;-76
2023/10/24 13:33:38;;;;;;;17.80;11.70;;;11.80;99.90;;;;;;5072904;28;20048;-84
2023/10/24 13:36:25;;;;;;;17.77;11.82;;;11.70;99.90;;;;;;5072573;28;20488;-79
2023/10/24 13:39:11;;;;;;;16.40;11.15;;;11.80;99.90;;;;;;5073063;28;20052;-81
2023/10/24 13:41:57;;;;;;;16.48;11.95;;;11.80;99.90;;;;;;5073136;28;20464;-79
2023/10/24 13:44:43;;;;;;;17.42;11.15;;;11.70;99.90;;;;;;5073052;28;20054;-78
2023/10/24 13:47:29;;;;;;;17.65;11.05;;;11.70;99.90;;;;;;5073483;28;20052;-77
2023/10/24 13:50:15;;;;;;;15.15;10.60;;;11.70;99.90;;;;;;5090286;28;20412;-86
2023/10/24 13:53:01;;;;;;;16.88;11.70;;;11.70;99.90;;;;;;5073089;28;20439;-79
2023/10/24 13:55:47;;;;;;;18.05;12.30;;;11.70;99.90;;;;;;5071641;28;20094;-76
2023/10/24 13:58:33;;;;;;;17.58;11.68;;;11.70;99.90;;;;;;5058589;28;20056;-75
2023/10/24 14:01:19;;;;;;;19.67;13.45;;;11.70;99.90;;;;;;5073194;28;20052;-74
2023/10/24 14:04:05;;;;;;;19.50;13.38;;;11.70;99.90;;;;;;5059573;28;20052;-82
2023/10/24 14:06:51;;;;;;;18.88;13.40;;;11.70;99.90;;;;;;5075497;28;20113;-80
2023/10/24 14:09:37;;;;;;;20.33;13.85;;;11.70;99.90;;;;;;5098323;28;20044;-74
2023/10/24 14:12:23;;;;;;;19.88;13.52;;;11.70;99.90;;;;;;5099916;28;20044;-75